Time,TemperatureF,DewpointF,PressureIn,WindDirection,WindDirectionDegrees,WindSpeedMPH,WindSpeedGustMPH,Humidity,HourlyPrecipIn,Conditions,Clouds,dailyrainin,SoftwareType,DateUTC
2013-06-04 00:02:00,58.4,41.9,29.71,WSW,247,5.6,8.1,54,0.00,,,0.00,WUHU21623XXSP,2013-06-04 07:02:00,
2013-06-04 00:07:00,57.9,41.9,29.71,WSW,247,7.2,8.1,55,0.00,,,0.00,WUHU21623XXSP,2013-06-04 07:07:00,
2013-06-04 00:12:00,57.7,41.7,29.71,WSW,247,6.0,8.7,55,0.00,,,0.00,WUHU21623XXSP,2013-06-04 07:12:00,
2013-06-04 00:17:00,57.5,41.5,29.71,WSW,247,6.5,8.9,55,0.00,,,0.00,WUHU21623XXSP,2013-06-04 07:17:00,
2013-06-04 00:22:00,57.5,42.0,29.70,West,270,3.8,8.9,56,0.00,,,0.00,WUHU21623XXSP,2013-06-04 07:22:00,
2013-06-04 00:27:00,57.5,42.0,29.71,WSW,247,1.3,7.4,56,0.00,,,0.00,WUHU21623XXSP,2013-06-04 07:27:00,
2013-06-04 00:32:00,57.7,41.7,29.71,West,270,5.4,6.9,55,0.00,,,0.00,WUHU21623XXSP,2013-06-04 07:32:00,
2013-06-04 00:37:00,58.1,42.1,29.70,West,270,9.4,10.3,55,0.00,,,0.00,WUHU21623XXSP,2013-06-04 07:37:00,
2013-06-04 00:42:00,58.3,42.3,29.70,West,270,5.4,10.3,55,0.00,,,0.00,WUHU21623XXSP,2013-06-04 07:42:00,
2013-06-04 00:47:00,58.1,42.1,29.70,West,270,5.4,9.4,55,0.00,,,0.00,WUHU21623XXSP,2013-06-04 07:47:00,
2013-06-04 00:52:00,57.9,41.9,29.71,West,270,2.7,7.8,55,0.00,,,0.00,WUHU21623XXSP,2013-06-04 07:52:00,
2013-06-04 00:57:00,57.7,41.7,29.70,West,270,5.8,7.6,55,0.00,,,0.00,WUHU21623XXSP,2013-06-04 07:57:00,
2013-06-04 01:02:00,57.5,41.5,29.71,West,270,7.8,9.8,55,0.00,,,0.00,WUHU21623XXSP,2013-06-04 08:02:00,
2013-06-04 01:07:00,57.2,41.7,29.71,WSW,247,7.8,9.8,56,0.00,,,0.00,WUHU21623XXSP,2013-06-04 08:07:00,
2013-06-04 01:12:00,56.8,41.3,29.70,WSW,247,7.6,9.6,56,0.00,,,0.00,WUHU21623XXSP,2013-06-04 08:12:00,
2013-06-04 01:17:00,56.8,41.8,29.70,WSW,247,8.3,10.7,57,0.00,,,0.00,WUHU21623XXSP,2013-06-04 08:17:00,
2013-06-04 01:22:00,56.8,41.8,29.70,WSW,247,6.7,10.7,57,0.00,,,0.00,WUHU21623XXSP,2013-06-04 08:22:00,
2013-06-04 01:27:00,56.8,41.8,29.70,WSW,247,6.0,9.2,57,0.00,,,0.00,WUHU21623XXSP,2013-06-04 08:27:00,
2013-06-04 01:32:00,56.8,41.8,29.70,West,270,5.4,12.1,57,0.00,,,0.00,WUHU21623XXSP,2013-06-04 08:32:00,
2013-06-04 01:37:00,56.8,41.8,29.71,WNW,292,9.8,12.1,57,0.00,,,0.00,WUHU21623XXSP,2013-06-04 08:37:00,
2013-06-04 01:42:00,56.6,42.1,29.71,West,270,6.9,13.2,58,0.00,,,0.00,WUHU21623XXSP,2013-06-04 08:42:00,
2013-06-04 01:47:00,56.5,42.0,29.70,West,270,6.3,13.2,58,0.00,,,0.00,WUHU21623XXSP,2013-06-04 08:47:00,
2013-06-04 01:52:00,56.3,41.8,29.70,West,270,4.7,8.9,58,0.00,,,0.00,WUHU21623XXSP,2013-06-04 08:52:00,
2013-06-04 01:57:00,56.3,41.8,29.70,West,270,7.2,10.5,58,0.00,,,0.00,WUHU21623XXSP,2013-06-04 08:57:00,
2013-06-04 02:02:00,56.1,42.1,29.71,WNW,292,7.6,11.2,59,0.00,,,0.00,WUHU21623XXSP,2013-06-04 09:02:00,
2013-06-04 02:07:00,56.1,42.1,29.70,West,270,8.1,11.2,59,0.00,,,0.00,WUHU21623XXSP,2013-06-04 09:07:00,
2013-06-04 02:12:00,56.3,42.7,29.71,West,270,5.8,9.8,60,0.00,,,0.00,WUHU21623XXSP,2013-06-04 09:12:00,
2013-06-04 02:17:00,56.3,42.7,29.71,WNW,292,10.1,13.2,60,0.00,,,0.00,WUHU21623XXSP,2013-06-04 09:17:00,
2013-06-04 02:22:00,56.3,42.7,29.70,WSW,247,9.4,13.2,60,0.00,,,0.00,WUHU21623XXSP,2013-06-04 09:22:00,
2013-06-04 02:27:00,56.3,42.7,29.70,West,270,9.8,11.4,60,0.00,,,0.00,WUHU21623XXSP,2013-06-04 09:27:00,
2013-06-04 02:32:00,56.3,42.7,29.70,West,270,7.6,12.3,60,0.00,,,0.00,WUHU21623XXSP,2013-06-04 09:32:00,
2013-06-04 02:37:00,56.3,42.7,29.71,West,270,4.0,12.3,60,0.00,,,0.00,WUHU21623XXSP,2013-06-04 09:37:00,
2013-06-04 02:42:00,56.3,42.7,29.71,WSW,247,6.0,9.8,60,0.00,,,0.00,WUHU21623XXSP,2013-06-04 09:42:00,
2013-06-04 02:47:00,55.9,42.8,29.70,SW,225,5.8,7.8,61,0.00,,,0.00,WUHU21623XXSP,2013-06-04 09:47:00,
2013-06-04 02:52:00,55.6,42.5,29.71,West,270,8.1,8.3,61,0.00,,,0.00,WUHU21623XXSP,2013-06-04 09:52:00,
2013-06-04 02:57:00,55.6,42.5,29.71,West,270,4.3,12.8,61,0.00,,,0.00,WUHU21623XXSP,2013-06-04 09:57:00,
2013-06-04 03:02:00,55.6,42.5,29.70,West,270,7.4,12.8,61,0.00,,,0.00,WUHU21623XXSP,2013-06-04 10:02:00,
2013-06-04 03:07:00,55.6,42.5,29.71,West,270,5.1,8.9,61,0.00,,,0.00,WUHU21623XXSP,2013-06-04 10:07:00,
2013-06-04 03:12:00,55.2,42.1,29.71,WSW,247,8.5,9.2,61,0.00,,,0.00,WUHU21623XXSP,2013-06-04 10:12:00,
2013-06-04 03:17:00,55.0,41.9,29.70,West,270,4.9,9.2,61,0.00,,,0.00,WUHU21623XXSP,2013-06-04 10:17:00,
2013-06-04 03:22:00,54.8,41.7,29.71,West,270,6.5,10.1,61,0.00,,,0.00,WUHU21623XXSP,2013-06-04 10:22:00,
2013-06-04 03:27:00,54.5,41.4,29.70,West,270,4.7,10.1,61,0.00,,,0.00,WUHU21623XXSP,2013-06-04 10:27:00,
2013-06-04 03:32:00,54.5,41.9,29.71,WSW,247,5.4,9.8,62,0.00,,,0.00,WUHU21623XXSP,2013-06-04 10:32:00,
2013-06-04 03:37:00,54.3,41.7,29.71,West,270,7.6,8.5,62,0.00,,,0.00,WUHU21623XXSP,2013-06-04 10:37:00,
2013-06-04 03:42:00,54.1,41.5,29.71,WSW,247,6.3,8.5,62,0.00,,,0.00,WUHU21623XXSP,2013-06-04 10:42:00,
2013-06-04 03:47:00,54.1,41.5,29.70,WNW,292,8.3,9.8,62,0.00,,,0.00,WUHU21623XXSP,2013-06-04 10:47:00,
2013-06-04 03:52:00,54.5,41.9,29.70,WNW,292,10.1,11.2,62,0.00,,,0.00,WUHU21623XXSP,2013-06-04 10:52:00,
2013-06-04 03:57:00,54.5,41.9,29.70,WNW,292,9.8,11.9,62,0.00,,,0.00,WUHU21623XXSP,2013-06-04 10:57:00,
2013-06-04 04:02:00,54.3,42.1,29.70,NW,315,8.7,12.3,63,0.00,,,0.00,WUHU21623XXSP,2013-06-04 11:02:00,
2013-06-04 04:07:00,54.1,41.9,29.70,WNW,292,13.0,13.4,63,0.00,,,0.00,WUHU21623XXSP,2013-06-04 11:07:00,
2013-06-04 04:12:00,54.1,42.3,29.70,WNW,292,9.6,13.4,64,0.00,,,0.00,WUHU21623XXSP,2013-06-04 11:12:00,
2013-06-04 04:17:00,54.1,42.7,29.71,WNW,292,10.7,13.4,65,0.00,,,0.00,WUHU21623XXSP,2013-06-04 11:17:00,
2013-06-04 04:22:00,54.1,42.7,29.71,WNW,292,9.4,13.4,65,0.00,,,0.00,WUHU21623XXSP,2013-06-04 11:22:00,
2013-06-04 04:27:00,54.1,42.7,29.70,WNW,292,11.4,12.8,65,0.00,,,0.00,WUHU21623XXSP,2013-06-04 11:27:00,
2013-06-04 04:32:00,54.3,42.9,29.70,WNW,292,11.6,16.1,65,0.00,,,0.00,WUHU21623XXSP,2013-06-04 11:32:00,
2013-06-04 04:37:00,54.5,43.1,29.71,WNW,292,10.3,16.1,65,0.00,,,0.00,WUHU21623XXSP,2013-06-04 11:37:00,
2013-06-04 04:42:00,54.8,43.4,29.70,WNW,292,8.3,12.8,65,0.00,,,0.00,WUHU21623XXSP,2013-06-04 11:42:00,
2013-06-04 04:47:00,54.8,43.4,29.71,WNW,292,9.2,12.8,65,0.00,,,0.00,WUHU21623XXSP,2013-06-04 11:47:00,
2013-06-04 04:52:00,54.5,43.1,29.71,WNW,292,9.8,13.6,65,0.00,,,0.00,WUHU21623XXSP,2013-06-04 11:52:00,
2013-06-04 04:57:00,54.5,43.1,29.71,WNW,292,10.7,13.6,65,0.00,,,0.00,WUHU21623XXSP,2013-06-04 11:57:00,
2013-06-04 05:02:00,54.1,43.1,29.71,WNW,292,10.5,14.8,66,0.00,,,0.00,WUHU21623XXSP,2013-06-04 12:02:00,
2013-06-04 05:07:00,54.1,43.1,29.71,WNW,292,10.3,14.8,66,0.00,,,0.00,WUHU21623XXSP,2013-06-04 12:07:00,
2013-06-04 05:12:00,53.9,42.9,29.71,WNW,292,8.5,13.2,66,0.00,,,0.00,WUHU21623XXSP,2013-06-04 12:12:00,
2013-06-04 05:17:00,53.9,42.9,29.71,West,270,7.8,13.2,66,0.00,,,0.00,WUHU21623XXSP,2013-06-04 12:17:00,
2013-06-04 05:22:00,53.9,42.9,29.71,WNW,292,10.7,13.2,66,0.00,,,0.00,WUHU21623XXSP,2013-06-04 12:22:00,
2013-06-04 05:27:00,53.9,42.9,29.71,WNW,292,8.7,12.3,66,0.00,,,0.00,WUHU21623XXSP,2013-06-04 12:27:00,
2013-06-04 05:32:00,53.8,43.2,29.71,West,270,11.0,12.3,67,0.00,,,0.00,WUHU21623XXSP,2013-06-04 12:32:00,
2013-06-04 05:37:00,53.9,43.3,29.71,WNW,292,11.6,13.6,67,0.00,,,0.00,WUHU21623XXSP,2013-06-04 12:37:00,
2013-06-04 05:42:00,54.1,43.5,29.71,West,270,9.2,13.6,67,0.00,,,0.00,WUHU21623XXSP,2013-06-04 12:42:00,
2013-06-04 05:47:00,53.9,43.3,29.71,WNW,292,7.6,13.6,67,0.00,,,0.00,WUHU21623XXSP,2013-06-04 12:47:00,
2013-06-04 05:52:00,53.9,43.3,29.72,WNW,293,10.4,12.8,67,0.00,,,0.00,WUHU21623XXSP,2013-06-04 12:52:00,
2013-06-04 05:57:00,53.9,43.3,29.72,WNW,292,10.1,13.6,67,0.00,,,0.00,WUHU21623XXSP,2013-06-04 12:57:00,
2013-06-04 06:02:00,53.9,43.3,29.72,WNW,292,8.3,13.6,67,0.00,,,0.00,WUHU21623XXSP,2013-06-04 13:02:00,
2013-06-04 06:07:00,53.8,43.2,29.72,WNW,292,8.9,11.2,67,0.00,,,0.00,WUHU21623XXSP,2013-06-04 13:07:00,
2013-06-04 06:12:00,53.8,43.6,29.72,WNW,292,7.2,10.3,68,0.00,,,0.00,WUHU21623XXSP,2013-06-04 13:12:00,
2013-06-04 06:17:00,53.8,43.6,29.73,WNW,292,8.1,10.7,68,0.00,,,0.00,WUHU21623XXSP,2013-06-04 13:17:00,
2013-06-04 06:22:00,53.9,43.7,29.73,WNW,292,9.8,11.0,68,0.00,,,0.00,WUHU21623XXSP,2013-06-04 13:22:00,
2013-06-04 06:27:00,54.1,43.9,29.73,West,270,6.3,11.2,68,0.00,,,0.00,WUHU21623XXSP,2013-06-04 13:27:00,
2013-06-04 06:32:00,54.3,43.7,29.73,WNW,292,6.3,11.2,67,0.00,,,0.00,WUHU21623XXSP,2013-06-04 13:32:00,
2013-06-04 06:37:00,54.5,43.9,29.73,West,270,4.9,8.3,67,0.00,,,0.00,WUHU21623XXSP,2013-06-04 13:37:00,
2013-06-04 06:42:00,55.0,44.4,29.74,WNW,292,3.4,10.1,67,0.00,,,0.00,WUHU21623XXSP,2013-06-04 13:42:00,
2013-06-04 06:47:00,54.8,44.2,29.74,West,270,4.7,10.1,67,0.00,,,0.00,WUHU21623XXSP,2013-06-04 13:47:00,
2013-06-04 06:52:00,54.8,44.2,29.74,West,270,8.3,9.4,67,0.00,,,0.00,WUHU21623XXSP,2013-06-04 13:52:00,
2013-06-04 06:57:00,54.7,44.1,29.74,West,270,9.8,9.8,67,0.00,,,0.00,WUHU21623XXSP,2013-06-04 13:57:00,
2013-06-04 07:02:00,54.8,44.2,29.74,West,270,7.8,11.2,67,0.00,,,0.00,WUHU21623XXSP,2013-06-04 14:02:00,
2013-06-04 07:07:00,54.8,44.2,29.74,WNW,292,9.4,11.2,67,0.00,,,0.00,WUHU21623XXSP,2013-06-04 14:07:00,
2013-06-04 07:12:00,54.8,44.6,29.74,West,276,8.7,13.6,68,0.00,,,0.00,WUHU21623XXSP,2013-06-04 14:12:00,
2013-06-04 07:17:00,55.0,44.8,29.75,WNW,292,10.3,13.6,68,0.00,,,0.00,WUHU21623XXSP,2013-06-04 14:17:00,
2013-06-04 07:22:00,55.0,44.8,29.75,WNW,292,12.1,13.6,68,0.00,,,0.00,WUHU21623XXSP,2013-06-04 14:22:00,
2013-06-04 07:27:00,55.0,44.8,29.75,West,270,10.3,13.6,68,0.00,,,0.00,WUHU21623XXSP,2013-06-04 14:27:00,
2013-06-04 07:32:00,55.4,45.1,29.75,West,270,5.6,13.2,68,0.00,,,0.00,WUHU21623XXSP,2013-06-04 14:32:00,
2013-06-04 07:37:00,55.6,45.3,29.75,WNW,292,13.2,13.2,68,0.00,,,0.00,WUHU21623XXSP,2013-06-04 14:37:00,
2013-06-04 07:42:00,55.9,46.0,29.75,West,270,10.1,13.2,69,0.00,,,0.00,WUHU21623XXSP,2013-06-04 14:42:00,
2013-06-04 07:47:00,55.9,46.0,29.75,West,270,11.4,13.0,69,0.00,,,0.00,WUHU21623XXSP,2013-06-04 14:47:00,
2013-06-04 07:52:00,55.9,45.6,29.76,West,270,10.1,13.0,68,0.00,,,0.00,WUHU21623XXSP,2013-06-04 14:52:00,
2013-06-04 07:57:00,56.1,45.8,29.76,West,270,10.5,12.5,68,0.00,,,0.00,WUHU21623XXSP,2013-06-04 14:57:00,
2013-06-04 08:02:00,56.3,46.0,29.76,West,270,11.9,13.2,68,0.00,,,0.00,WUHU21623XXSP,2013-06-04 15:02:00,
2013-06-04 08:07:00,56.5,46.2,29.76,West,270,10.9,15.0,68,0.00,,,0.00,WUHU21623XXSP,2013-06-04 15:07:00,
2013-06-04 08:12:00,56.6,46.7,29.76,West,270,9.2,15.2,69,0.00,,,0.00,WUHU21623XXSP,2013-06-04 15:12:00,
2013-06-04 08:17:00,56.8,46.9,29.76,WNW,292,13.0,15.4,69,0.00,,,0.00,WUHU21623XXSP,2013-06-04 15:17:00,
2013-06-04 08:22:00,56.8,46.5,29.76,WSW,247,12.1,15.9,68,0.00,,,0.00,WUHU21623XXSP,2013-06-04 15:22:00,
2013-06-04 08:27:00,57.2,46.9,29.76,WSW,247,10.3,15.9,68,0.00,,,0.00,WUHU21623XXSP,2013-06-04 15:27:00,
2013-06-04 08:32:00,57.5,47.2,29.76,WSW,247,11.9,13.6,68,0.00,,,0.00,WUHU21623XXSP,2013-06-04 15:32:00,
2013-06-04 08:37:00,57.9,47.5,29.76,WSW,247,8.3,13.6,68,0.00,,,0.00,WUHU21623XXSP,2013-06-04 15:37:00,
2013-06-04 08:42:00,58.4,48.0,29.76,WNW,292,8.1,16.1,68,0.00,,,0.00,WUHU21623XXSP,2013-06-04 15:42:00,
2013-06-04 08:47:00,58.6,47.8,29.76,West,270,10.7,16.1,67,0.00,,,0.00,WUHU21623XXSP,2013-06-04 15:47:00,
2013-06-04 08:52:00,59.0,48.2,29.76,WSW,247,11.4,13.6,67,0.00,,,0.00,WUHU21623XXSP,2013-06-04 15:52:00,
2013-06-04 08:57:00,59.2,48.4,29.77,WSW,247,8.9,13.4,67,0.00,,,0.00,WUHU21623XXSP,2013-06-04 15:57:00,
2013-06-04 09:02:00,59.5,48.3,29.77,West,270,16.6,17.7,66,0.00,,,0.00,WUHU21623XXSP,2013-06-04 16:02:00,
2013-06-04 09:07:00,59.9,48.7,29.77,West,270,8.7,17.7,66,0.00,,,0.00,WUHU21623XXSP,2013-06-04 16:07:00,
2013-06-04 09:12:00,60.2,48.9,29.77,West,270,12.1,17.2,66,0.00,,,0.00,WUHU21623XXSP,2013-06-04 16:12:00,
2013-06-04 09:17:00,60.4,48.7,29.76,West,270,9.6,17.7,65,0.00,,,0.00,WUHU21623XXSP,2013-06-04 16:17:00,
2013-06-04 09:22:00,60.8,48.7,29.77,West,270,7.4,17.7,64,0.00,,,0.00,WUHU21623XXSP,2013-06-04 16:22:00,
2013-06-04 09:27:00,61.1,49.0,29.77,West,270,11.4,14.8,64,0.00,,,0.00,WUHU21623XXSP,2013-06-04 16:27:00,
2013-06-04 09:32:00,61.3,49.2,29.77,West,270,17.4,17.4,64,0.00,,,0.00,WUHU21623XXSP,2013-06-04 16:32:00,
2013-06-04 09:37:00,61.7,49.6,29.77,WNW,292,6.5,17.4,64,0.00,,,0.00,WUHU21623XXSP,2013-06-04 16:37:00,
2013-06-04 09:42:00,62.0,49.4,29.77,WNW,292,12.3,15.0,63,0.00,,,0.00,WUHU21623XXSP,2013-06-04 16:42:00,
2013-06-04 09:47:00,62.6,50.0,29.77,West,270,11.0,18.1,63,0.00,,,0.00,WUHU21623XXSP,2013-06-04 16:47:00,
2013-06-04 09:52:00,62.8,49.7,29.77,WNW,292,11.6,18.1,62,0.00,,,0.00,WUHU21623XXSP,2013-06-04 16:52:00,
2013-06-04 09:57:00,63.1,50.0,29.77,WSW,247,15.0,19.5,62,0.00,,,0.00,WUHU21623XXSP,2013-06-04 16:57:00,
2013-06-04 10:02:00,63.5,50.0,29.77,WNW,292,5.6,19.5,61,0.00,,,0.00,WUHU21623XXSP,2013-06-04 17:02:00,
2013-06-04 10:07:00,63.7,50.1,29.78,SW,225,4.3,15.0,61,0.00,,,0.00,WUHU21623XXSP,2013-06-04 17:07:00,
2013-06-04 10:12:00,64.0,50.4,29.78,WSW,247,11.4,14.8,61,0.00,,,0.00,WUHU21623XXSP,2013-06-04 17:12:00,
2013-06-04 10:17:00,64.0,50.4,29.78,West,270,8.3,15.9,61,0.00,,,0.00,WUHU21623XXSP,2013-06-04 17:17:00,
2013-06-04 10:22:00,64.6,50.5,29.78,WNW,292,10.7,16.1,60,0.00,,,0.00,WUHU21623XXSP,2013-06-04 17:22:00,
2013-06-04 10:27:00,64.9,50.8,29.78,WSW,247,9.8,16.3,60,0.00,,,0.00,WUHU21623XXSP,2013-06-04 17:27:00,
2013-06-04 10:32:00,65.3,50.8,29.78,WSW,247,4.9,16.3,59,0.00,,,0.00,WUHU21623XXSP,2013-06-04 17:32:00,
2013-06-04 10:37:00,65.6,51.0,29.79,WNW,292,11.2,15.7,59,0.00,,,0.00,WUHU21623XXSP,2013-06-04 17:37:00,
2013-06-04 10:42:00,65.8,50.8,29.79,West,270,10.7,16.1,58,0.00,,,0.00,WUHU21623XXSP,2013-06-04 17:42:00,
2013-06-04 10:47:00,66.2,51.1,29.79,SW,225,11.2,16.1,58,0.00,,,0.00,WUHU21623XXSP,2013-06-04 17:47:00,
2013-06-04 10:52:00,66.5,50.9,29.79,SW,225,11.4,13.2,57,0.00,,,0.00,WUHU21623XXSP,2013-06-04 17:52:00,
2013-06-04 10:57:00,66.7,51.1,29.79,WSW,247,9.8,15.9,57,0.00,,,0.00,WUHU21623XXSP,2013-06-04 17:57:00,
2013-06-04 11:02:00,67.1,51.5,29.79,WSW,247,6.5,15.9,57,0.00,,,0.00,WUHU21623XXSP,2013-06-04 18:02:00,
2013-06-04 11:07:00,67.4,51.3,29.79,WNW,292,12.8,16.3,56,0.00,,,0.00,WUHU21623XXSP,2013-06-04 18:07:00,
2013-06-04 11:12:00,68.0,51.8,29.79,WSW,247,8.5,16.3,56,0.00,,,0.00,WUHU21623XXSP,2013-06-04 18:12:00,
2013-06-04 11:17:00,68.2,52.0,29.79,WNW,292,10.7,15.4,56,0.00,,,0.00,WUHU21623XXSP,2013-06-04 18:17:00,
2013-06-04 11:22:00,68.5,51.8,29.79,WSW,247,11.0,15.4,55,0.00,,,0.00,WUHU21623XXSP,2013-06-04 18:22:00,
2013-06-04 11:27:00,68.9,52.2,29.79,West,270,7.8,16.6,55,0.00,,,0.00,WUHU21623XXSP,2013-06-04 18:27:00,
2013-06-04 11:32:00,69.2,52.0,29.79,WSW,247,17.0,17.0,54,0.00,,,0.00,WUHU21623XXSP,2013-06-04 18:32:00,
2013-06-04 11:37:00,69.2,52.0,29.79,WSW,247,9.8,17.0,54,0.00,,,0.00,WUHU21623XXSP,2013-06-04 18:37:00,
2013-06-04 11:42:00,69.8,52.5,29.79,West,270,6.7,13.4,54,0.00,,,0.00,WUHU21623XXSP,2013-06-04 18:42:00,
2013-06-04 11:47:00,70.1,52.3,29.79,SW,225,8.3,13.4,53,0.00,,,0.00,WUHU21623XXSP,2013-06-04 18:47:00,
2013-06-04 11:52:00,70.3,52.5,29.79,West,270,11.9,16.6,53,0.00,,,0.00,WUHU21623XXSP,2013-06-04 18:52:00,
2013-06-04 11:57:00,70.9,52.5,29.79,SW,225,9.6,16.6,52,0.00,,,0.00,WUHU21623XXSP,2013-06-04 18:57:00,
2013-06-04 12:02:00,71.0,52.6,29.79,WSW,247,10.5,14.8,52,0.00,,,0.00,WUHU21623XXSP,2013-06-04 19:02:00,
2013-06-04 12:07:00,71.4,53.0,29.79,WNW,292,8.7,16.8,52,0.00,,,0.00,WUHU21623XXSP,2013-06-04 19:07:00,
2013-06-04 12:12:00,71.8,52.8,29.79,West,270,7.2,16.8,51,0.00,,,0.00,WUHU21623XXSP,2013-06-04 19:12:00,
2013-06-04 12:17:00,71.9,52.9,29.79,West,270,12.3,16.8,51,0.00,,,0.00,WUHU21623XXSP,2013-06-04 19:17:00,
2013-06-04 12:22:00,72.3,52.7,29.79,WNW,292,15.2,16.1,50,0.00,,,0.00,WUHU21623XXSP,2013-06-04 19:22:00,
2013-06-04 12:27:00,72.5,52.9,29.79,SW,225,11.0,17.7,50,0.00,,,0.00,WUHU21623XXSP,2013-06-04 19:27:00,
2013-06-04 12:32:00,72.8,52.6,29.79,West,270,18.3,18.6,49,0.00,,,0.00,WUHU21623XXSP,2013-06-04 19:32:00,
2013-06-04 12:37:00,73.0,52.8,29.79,WSW,247,6.7,18.6,49,0.00,,,0.00,WUHU21623XXSP,2013-06-04 19:37:00,
2013-06-04 12:42:00,73.4,53.1,29.79,WSW,247,8.7,18.3,49,0.00,,,0.00,WUHU21623XXSP,2013-06-04 19:42:00,
2013-06-04 12:47:00,73.7,52.8,29.79,WNW,292,6.9,21.0,48,0.00,,,0.00,WUHU21623XXSP,2013-06-04 19:47:00,
2013-06-04 12:52:00,73.9,53.0,29.79,WSW,247,11.0,21.0,48,0.00,,,0.00,WUHU21623XXSP,2013-06-04 19:52:00,
2013-06-04 12:57:00,74.3,53.4,29.79,West,270,15.0,20.1,48,0.00,,,0.00,WUHU21623XXSP,2013-06-04 19:57:00,
2013-06-04 13:02:00,74.5,53.6,29.79,WNW,292,13.2,17.4,48,0.00,,,0.00,WUHU21623XXSP,2013-06-04 20:02:00,
2013-06-04 13:07:00,74.8,53.2,29.79,West,270,8.5,17.0,47,0.00,,,0.00,WUHU21623XXSP,2013-06-04 20:07:00,
2013-06-04 13:12:00,74.8,53.2,29.78,West,270,13.0,16.8,47,0.00,,,0.00,WUHU21623XXSP,2013-06-04 20:12:00,
2013-06-04 13:17:00,75.2,53.0,29.78,WNW,292,16.8,22.4,46,0.00,,,0.00,WUHU21623XXSP,2013-06-04 20:17:00,
2013-06-04 13:22:00,75.2,53.0,29.78,West,270,12.8,22.4,46,0.00,,,0.00,WUHU21623XXSP,2013-06-04 20:22:00,
2013-06-04 13:27:00,75.4,53.2,29.78,West,270,17.4,20.4,46,0.00,,,0.00,WUHU21623XXSP,2013-06-04 20:27:00,
2013-06-04 13:32:00,75.5,53.3,29.78,WSW,247,10.3,17.4,46,0.00,,,0.00,WUHU21623XXSP,2013-06-04 20:32:00,
2013-06-04 13:37:00,75.7,53.5,29.78,West,262,13.3,18.1,46,0.00,,,0.00,WUHU21623XXSP,2013-06-04 20:37:00,
2013-06-04 13:42:00,75.9,53.0,29.78,West,263,12.9,18.6,45,0.00,,,0.00,WUHU21623XXSP,2013-06-04 20:42:00,
2013-06-04 13:47:00,76.1,53.2,29.78,West,270,17.9,19.0,45,0.00,,,0.00,WUHU21623XXSP,2013-06-04 20:47:00,
2013-06-04 13:52:00,76.4,53.5,29.78,WNW,292,15.7,23.0,45,0.00,,,0.00,WUHU21623XXSP,2013-06-04 20:52:00,
2013-06-04 13:57:00,76.6,53.0,29.78,West,270,12.5,23.0,44,0.00,,,0.00,WUHU21623XXSP,2013-06-04 20:57:00,
2013-06-04 14:02:00,76.6,53.0,29.78,WNW,292,11.4,20.8,44,0.00,,,0.00,WUHU21623XXSP,2013-06-04 21:02:00,
2013-06-04 14:07:00,76.8,52.6,29.78,West,270,16.1,18.6,43,0.00,,,0.00,WUHU21623XXSP,2013-06-04 21:07:00,
2013-06-04 14:12:00,77.2,52.9,29.78,West,270,11.4,16.6,43,0.00,,,0.00,WUHU21623XXSP,2013-06-04 21:12:00,
2013-06-04 14:17:00,77.2,52.9,29.78,WSW,247,12.3,21.3,43,0.00,,,0.00,WUHU21623XXSP,2013-06-04 21:17:00,
2013-06-04 14:22:00,77.3,52.4,29.78,West,261,14.3,21.3,42,0.00,,,0.00,WUHU21623XXSP,2013-06-04 21:22:00,
2013-06-04 14:27:00,77.5,52.5,29.78,WSW,247,9.4,19.7,42,0.00,,,0.00,WUHU21623XXSP,2013-06-04 21:27:00,
2013-06-04 14:32:00,77.5,52.5,29.78,WNW,292,15.9,22.6,42,0.00,,,0.00,WUHU21623XXSP,2013-06-04 21:32:00,
2013-06-04 14:37:00,77.7,52.1,29.78,WNW,292,20.4,22.6,41,0.00,,,0.00,WUHU21623XXSP,2013-06-04 21:37:00,
2013-06-04 14:42:00,77.9,52.2,29.78,West,270,20.4,23.0,41,0.00,,,0.00,WUHU21623XXSP,2013-06-04 21:42:00,
2013-06-04 14:47:00,78.1,52.4,29.78,West,270,7.8,23.0,41,0.00,,,0.00,WUHU21623XXSP,2013-06-04 21:47:00,
2013-06-04 14:52:00,78.2,52.5,29.77,West,270,17.0,21.7,41,0.00,,,0.00,WUHU21623XXSP,2013-06-04 21:52:00,
2013-06-04 14:57:00,78.4,52.7,29.78,WNW,292,23.7,23.7,41,0.00,,,0.00,WUHU21623XXSP,2013-06-04 21:57:00,
2013-06-04 15:02:00,78.4,52.0,29.78,NW,315,18.8,23.7,40,0.00,,,0.00,WUHU21623XXSP,2013-06-04 22:02:00,
2013-06-04 15:07:00,78.4,52.0,29.78,WNW,292,12.1,22.8,40,0.00,,,0.00,WUHU21623XXSP,2013-06-04 22:07:00,
2013-06-04 15:12:00,78.4,52.0,29.78,WNW,292,20.6,22.8,40,0.00,,,0.00,WUHU21623XXSP,2013-06-04 22:12:00,
2013-06-04 15:17:00,78.6,52.2,29.78,West,270,16.3,23.3,40,0.00,,,0.00,WUHU21623XXSP,2013-06-04 22:17:00,
2013-06-04 15:22:00,78.8,51.7,29.78,WNW,283,17.6,23.3,39,0.00,,,0.00,WUHU21623XXSP,2013-06-04 22:22:00,
2013-06-04 15:27:00,78.8,51.7,29.78,WNW,292,15.9,20.4,39,0.00,,,0.00,WUHU21623XXSP,2013-06-04 22:27:00,
2013-06-04 15:32:00,78.8,51.7,29.78,WNW,292,13.6,21.3,39,0.00,,,0.00,WUHU21623XXSP,2013-06-04 22:32:00,
2013-06-04 15:37:00,79.0,51.8,29.78,West,270,13.2,23.5,39,0.00,,,0.00,WUHU21623XXSP,2013-06-04 22:37:00,
2013-06-04 15:42:00,79.0,51.8,29.77,West,270,12.8,23.5,39,0.00,,,0.00,WUHU21623XXSP,2013-06-04 22:42:00,
2013-06-04 15:47:00,79.0,52.5,29.77,WSW,247,8.9,20.1,40,0.00,,,0.00,WUHU21623XXSP,2013-06-04 22:47:00,
2013-06-04 15:52:00,79.0,51.8,29.78,West,270,19.2,20.1,39,0.00,,,0.00,WUHU21623XXSP,2013-06-04 22:52:00,
2013-06-04 15:57:00,79.0,51.8,29.78,WSW,247,9.4,20.8,39,0.00,,,0.00,WUHU21623XXSP,2013-06-04 22:57:00,
2013-06-04 16:02:00,79.0,52.5,29.78,NW,315,18.3,24.8,40,0.00,,,0.00,WUHU21623XXSP,2013-06-04 23:02:00,
2013-06-04 16:07:00,79.0,52.5,29.78,WNW,292,17.9,24.8,40,0.00,,,0.00,WUHU21623XXSP,2013-06-04 23:07:00,
2013-06-04 16:12:00,79.1,52.6,29.77,WNW,292,17.0,23.7,40,0.00,,,0.00,WUHU21623XXSP,2013-06-04 23:12:00,
2013-06-04 16:17:00,79.0,51.8,29.77,West,270,16.3,22.6,39,0.00,,,0.00,WUHU21623XXSP,2013-06-04 23:17:00,
2013-06-04 16:22:00,78.8,51.7,29.77,West,270,15.2,22.6,39,0.00,,,0.00,WUHU21623XXSP,2013-06-04 23:22:00,
2013-06-04 16:27:00,78.4,51.3,29.77,WNW,292,17.7,21.7,39,0.00,,,0.00,WUHU21623XXSP,2013-06-04 23:27:00,
2013-06-04 16:32:00,78.4,52.0,29.77,WNW,292,20.4,21.7,40,0.00,,,0.00,WUHU21623XXSP,2013-06-04 23:32:00,
2013-06-04 16:37:00,78.2,51.8,29.77,WSW,247,11.0,21.5,40,0.00,,,0.00,WUHU21623XXSP,2013-06-04 23:37:00,
2013-06-04 16:42:00,78.2,51.8,29.77,West,270,18.6,21.9,40,0.00,,,0.00,WUHU21623XXSP,2013-06-04 23:42:00,
2013-06-04 16:47:00,78.1,51.7,29.77,West,270,10.7,22.8,40,0.00,,,0.00,WUHU21623XXSP,2013-06-04 23:47:00,
2013-06-04 16:52:00,77.9,51.5,29.77,West,270,20.6,24.2,40,0.00,,,0.00,WUHU21623XXSP,2013-06-04 23:52:00,
2013-06-04 16:57:00,77.7,51.4,29.77,WNW,292,16.6,24.2,40,0.00,,,0.00,WUHU21623XXSP,2013-06-04 23:57:00,
2013-06-04 17:02:00,77.5,51.9,29.78,NW,315,18.1,23.7,41,0.00,,,0.00,WUHU21623XXSP,2013-06-05 00:02:00,
2013-06-04 17:07:00,77.5,51.9,29.78,West,270,14.8,22.4,41,0.00,,,0.00,WUHU21623XXSP,2013-06-05 00:07:00,
2013-06-04 17:12:00,77.3,51.7,29.77,WSW,247,11.0,21.3,41,0.00,,,0.00,WUHU21623XXSP,2013-06-05 00:12:00,
2013-06-04 17:17:00,77.0,51.4,29.78,West,270,10.3,21.3,41,0.00,,,0.00,WUHU21623XXSP,2013-06-05 00:17:00,
2013-06-04 17:22:00,77.0,51.4,29.78,West,270,15.2,22.6,41,0.00,,,0.00,WUHU21623XXSP,2013-06-05 00:22:00,
2013-06-04 17:27:00,77.0,51.4,29.78,WNW,292,12.3,22.6,41,0.00,,,0.00,WUHU21623XXSP,2013-06-05 00:27:00,
2013-06-04 17:32:00,77.0,51.4,29.78,WNW,292,19.5,19.5,41,0.00,,,0.00,WUHU21623XXSP,2013-06-05 00:32:00,
2013-06-04 17:37:00,76.6,51.1,29.77,West,270,14.8,19.5,41,0.00,,,0.00,WUHU21623XXSP,2013-06-05 00:37:00,
2013-06-04 17:42:00,76.6,51.1,29.77,WNW,292,15.9,21.0,41,0.00,,,0.00,WUHU21623XXSP,2013-06-05 00:42:00,
2013-06-04 17:47:00,76.4,51.6,29.77,West,270,16.1,21.0,42,0.00,,,0.00,WUHU21623XXSP,2013-06-05 00:47:00,
2013-06-04 17:52:00,76.4,51.6,29.77,West,270,19.7,21.5,42,0.00,,,0.00,WUHU21623XXSP,2013-06-05 00:52:00,
2013-06-04 17:57:00,76.3,51.5,29.77,West,270,15.2,21.5,42,0.00,,,0.00,WUHU21623XXSP,2013-06-05 00:57:00,
2013-06-04 18:02:00,76.1,51.3,29.77,WNW,292,15.7,19.2,42,0.00,,,0.00,WUHU21623XXSP,2013-06-05 01:02:00,
2013-06-04 18:07:00,76.1,51.3,29.77,WNW,286,16.3,22.8,42,0.00,,,0.00,WUHU21623XXSP,2013-06-05 01:07:00,
2013-06-04 18:12:00,75.9,51.1,29.78,West,270,10.1,22.8,42,0.00,,,0.00,WUHU21623XXSP,2013-06-05 01:12:00,
2013-06-04 18:17:00,75.5,50.7,29.77,WNW,292,16.6,19.5,42,0.00,,,0.00,WUHU21623XXSP,2013-06-05 01:17:00,
2013-06-04 18:22:00,75.4,50.6,29.77,West,270,11.2,19.9,42,0.00,,,0.00,WUHU21623XXSP,2013-06-05 01:22:00,
2013-06-04 18:27:00,74.8,50.1,29.78,West,272,13.1,19.9,42,0.00,,,0.00,WUHU21623XXSP,2013-06-05 01:27:00,
2013-06-04 18:32:00,74.5,50.5,29.77,West,270,12.1,13.6,43,0.00,,,0.00,WUHU21623XXSP,2013-06-05 01:32:00,
2013-06-04 18:37:00,74.1,50.1,29.77,WSW,247,7.2,13.6,43,0.00,,,0.00,WUHU21623XXSP,2013-06-05 01:37:00,
2013-06-04 18:42:00,73.9,50.6,29.77,West,259,10.8,15.2,44,0.00,,,0.00,WUHU21623XXSP,2013-06-05 01:42:00,
2013-06-04 18:47:00,73.6,50.3,29.77,WSW,247,12.1,15.2,44,0.00,,,0.00,WUHU21623XXSP,2013-06-05 01:47:00,
2013-06-04 18:52:00,73.6,50.3,29.77,West,270,10.5,15.4,44,0.00,,,0.00,WUHU21623XXSP,2013-06-05 01:52:00,
2013-06-04 18:57:00,73.4,50.1,29.78,West,270,11.0,15.9,44,0.00,,,0.00,WUHU21623XXSP,2013-06-05 01:57:00,
2013-06-04 19:02:00,73.0,49.8,29.78,WSW,247,12.5,15.9,44,0.00,,,0.00,WUHU21623XXSP,2013-06-05 02:02:00,
2013-06-04 19:07:00,72.8,50.2,29.78,WSW,247,13.4,16.3,45,0.00,,,0.00,WUHU21623XXSP,2013-06-05 02:07:00,
2013-06-04 19:12:00,72.1,49.6,29.78,West,270,12.8,16.3,45,0.00,,,0.00,WUHU21623XXSP,2013-06-05 02:12:00,
2013-06-04 19:17:00,72.1,49.6,29.78,West,270,10.3,13.4,45,0.00,,,0.00,WUHU21623XXSP,2013-06-05 02:17:00,
2013-06-04 19:22:00,71.9,50.0,29.78,WSW,247,9.4,13.4,46,0.00,,,0.00,WUHU21623XXSP,2013-06-05 02:22:00,
2013-06-04 19:27:00,72.1,49.6,29.78,West,270,15.4,15.4,45,0.00,,,0.00,WUHU21623XXSP,2013-06-05 02:27:00,
2013-06-04 19:32:00,72.3,49.7,29.78,West,270,8.3,15.4,45,0.00,,,0.00,WUHU21623XXSP,2013-06-05 02:32:00,
2013-06-04 19:37:00,72.1,49.6,29.79,West,270,10.3,13.0,45,0.00,,,0.00,WUHU21623XXSP,2013-06-05 02:37:00,
2013-06-04 19:42:00,71.9,49.4,29.78,West,270,8.1,15.2,45,0.00,,,0.00,WUHU21623XXSP,2013-06-05 02:42:00,
2013-06-04 19:47:00,71.6,49.1,29.78,West,270,11.0,15.2,45,0.00,,,0.00,WUHU21623XXSP,2013-06-05 02:47:00,
2013-06-04 19:52:00,71.2,49.3,29.78,WSW,247,8.5,13.4,46,0.00,,,0.00,WUHU21623XXSP,2013-06-05 02:52:00,
2013-06-04 19:57:00,70.5,48.7,29.78,WSW,247,11.4,13.2,46,0.00,,,0.00,WUHU21623XXSP,2013-06-05 02:57:00,
2013-06-04 20:02:00,70.3,48.5,29.79,West,270,9.4,14.8,46,0.00,,,0.00,WUHU21623XXSP,2013-06-05 03:02:00,
2013-06-04 20:07:00,70.5,48.7,29.78,WSW,247,11.2,14.8,46,0.00,,,0.00,WUHU21623XXSP,2013-06-05 03:07:00,
2013-06-04 20:12:00,70.5,48.7,29.79,West,270,8.7,11.4,46,0.00,,,0.00,WUHU21623XXSP,2013-06-05 03:12:00,
2013-06-04 20:17:00,70.1,48.3,29.79,WSW,247,13.4,13.4,46,0.00,,,0.00,WUHU21623XXSP,2013-06-05 03:17:00,
2013-06-04 20:22:00,69.2,47.5,29.79,West,270,9.8,13.4,46,0.00,,,0.00,WUHU21623XXSP,2013-06-05 03:22:00,
2013-06-04 20:27:00,68.5,46.9,29.79,West,270,7.2,12.8,46,0.00,,,0.00,WUHU21623XXSP,2013-06-05 03:27:00,
2013-06-04 20:32:00,68.0,47.0,29.79,WSW,247,8.1,11.2,47,0.00,,,0.00,WUHU21623XXSP,2013-06-05 03:32:00,
2013-06-04 20:37:00,67.4,46.5,29.79,West,270,6.5,11.2,47,0.00,,,0.00,WUHU21623XXSP,2013-06-05 03:37:00,
2013-06-04 20:42:00,66.9,46.0,29.79,West,270,6.7,10.7,47,0.00,,,0.00,WUHU21623XXSP,2013-06-05 03:42:00,
2013-06-04 20:47:00,66.7,45.8,29.79,West,270,13.4,13.4,47,0.00,,,0.00,WUHU21623XXSP,2013-06-05 03:47:00,
2013-06-04 20:52:00,66.7,46.4,29.79,West,270,8.3,13.4,48,0.00,,,0.00,WUHU21623XXSP,2013-06-05 03:52:00,
2013-06-04 20:57:00,66.4,46.1,29.79,West,270,7.8,12.3,48,0.00,,,0.00,WUHU21623XXSP,2013-06-05 03:57:00,
2013-06-04 21:01:00,65.8,45.6,29.79,West,270,9.8,12.5,48,0.00,,,0.00,WUHU21623XXSP,2013-06-05 04:01:00,
2013-06-04 21:06:00,65.5,45.8,29.79,WNW,292,12.1,13.4,49,0.00,,,0.00,WUHU21623XXSP,2013-06-05 04:06:00,
2013-06-04 21:11:00,64.9,45.3,29.79,West,270,7.2,13.4,49,0.00,,,0.00,WUHU21623XXSP,2013-06-05 04:11:00,
2013-06-04 21:16:00,64.6,45.6,29.78,West,270,5.1,13.2,50,0.00,,,0.00,WUHU21623XXSP,2013-06-05 04:16:00,
2013-06-04 21:21:00,64.0,45.0,29.79,West,270,8.7,11.0,50,0.00,,,0.00,WUHU21623XXSP,2013-06-05 04:21:00,
2013-06-04 21:26:00,63.8,44.8,29.79,West,270,0.2,11.0,50,0.00,,,0.00,WUHU21623XXSP,2013-06-05 04:26:00,
2013-06-04 21:31:00,63.7,44.7,29.79,West,270,6.3,9.4,50,0.00,,,0.00,WUHU21623XXSP,2013-06-05 04:31:00,
2013-06-04 21:36:00,63.5,45.1,29.79,West,270,8.7,10.5,51,0.00,,,0.00,WUHU21623XXSP,2013-06-05 04:36:00,
2013-06-04 21:41:00,63.1,44.7,29.79,WSW,247,6.3,10.5,51,0.00,,,0.00,WUHU21623XXSP,2013-06-05 04:41:00,
2013-06-04 21:46:00,62.8,44.4,29.79,West,270,8.3,10.5,51,0.00,,,0.00,WUHU21623XXSP,2013-06-05 04:46:00,
2013-06-04 21:51:00,62.6,44.8,29.80,WSW,247,6.5,10.5,52,0.00,,,0.00,WUHU21623XXSP,2013-06-05 04:51:00,
2013-06-04 21:56:00,62.2,44.4,29.80,WSW,247,11.4,11.4,52,0.00,,,0.00,WUHU21623XXSP,2013-06-05 04:56:00,
2013-06-04 22:01:00,62.2,44.4,29.80,WNW,292,8.5,11.4,52,0.00,,,0.00,WUHU21623XXSP,2013-06-05 05:01:00,
2013-06-04 22:06:00,62.0,44.2,29.80,West,270,7.2,11.0,52,0.00,,,0.00,WUHU21623XXSP,2013-06-05 05:06:00,
2013-06-04 22:12:00,62.0,44.2,29.80,West,270,7.8,11.0,52,0.00,,,0.00,WUHU21623XXSP,2013-06-05 05:12:00,
2013-06-04 22:17:00,62.0,44.2,29.80,West,270,8.1,10.5,52,0.00,,,0.00,WUHU21623XXSP,2013-06-05 05:17:00,
2013-06-04 22:22:00,61.7,44.5,29.80,WSW,247,7.2,11.2,53,0.00,,,0.00,WUHU21623XXSP,2013-06-05 05:22:00,
2013-06-04 22:27:00,61.1,43.9,29.81,WNW,292,7.2,11.9,53,0.00,,,0.00,WUHU21623XXSP,2013-06-05 05:27:00,
2013-06-04 22:32:00,60.8,43.6,29.81,WNW,292,8.9,11.9,53,0.00,,,0.00,WUHU21623XXSP,2013-06-05 05:32:00,
2013-06-04 22:37:00,60.4,43.7,29.81,West,270,9.4,12.1,54,0.00,,,0.00,WUHU21623XXSP,2013-06-05 05:37:00,
2013-06-04 22:42:00,60.1,43.5,29.81,West,270,10.3,10.3,54,0.00,,,0.00,WUHU21623XXSP,2013-06-05 05:42:00,
2013-06-04 22:47:00,59.7,43.1,29.81,West,270,4.0,10.3,54,0.00,,,0.00,WUHU21623XXSP,2013-06-05 05:47:00,
2013-06-04 22:52:00,59.5,43.4,29.81,West,270,4.7,11.0,55,0.00,,,0.00,WUHU21623XXSP,2013-06-05 05:52:00,
2013-06-04 22:57:00,59.5,43.4,29.81,West,270,4.3,11.0,55,0.00,,,0.00,WUHU21623XXSP,2013-06-05 05:57:00,
2013-06-04 23:02:00,59.5,43.4,29.81,West,270,0.0,9.2,55,0.00,,,0.00,WUHU21623XXSP,2013-06-05 06:02:00,
2013-06-04 23:07:00,59.2,43.1,29.81,West,270,4.0,9.2,55,0.00,,,0.00,WUHU21623XXSP,2013-06-05 06:07:00,
2013-06-04 23:12:00,59.0,42.9,29.81,West,270,7.6,10.5,55,0.00,,,0.00,WUHU21623XXSP,2013-06-05 06:12:00,
2013-06-04 23:17:00,58.6,43.0,29.81,West,270,8.7,10.5,56,0.00,,,0.00,WUHU21623XXSP,2013-06-05 06:17:00,
2013-06-04 23:22:00,58.4,42.8,29.81,WNW,292,5.4,11.4,56,0.00,,,0.00,WUHU21623XXSP,2013-06-05 06:22:00,
2013-06-04 23:27:00,58.1,43.0,29.81,West,270,5.8,11.4,57,0.00,,,0.00,WUHU21623XXSP,2013-06-05 06:27:00,
2013-06-04 23:32:00,57.7,42.7,29.81,WSW,247,9.2,11.0,57,0.00,,,0.00,WUHU21623XXSP,2013-06-05 06:32:00,
2013-06-04 23:37:00,57.5,42.9,29.81,WSW,247,7.2,11.0,58,0.00,,,0.00,WUHU21623XXSP,2013-06-05 06:37:00,
2013-06-04 23:42:00,57.5,42.9,29.81,West,270,7.8,10.7,58,0.00,,,0.00,WUHU21623XXSP,2013-06-05 06:42:00,
2013-06-04 23:47:00,57.7,43.1,29.81,West,270,4.7,10.7,58,0.00,,,0.00,WUHU21623XXSP,2013-06-05 06:47:00,
2013-06-04 23:52:00,57.5,42.9,29.81,WNW,292,8.3,10.7,58,0.00,,,0.00,WUHU21623XXSP,2013-06-05 06:52:00,
2013-06-04 23:57:00,57.5,42.9,29.81,WNW,292,8.1,11.4,58,0.00,,,0.00,WUHU21623XXSP,2013-06-05 06:57:00,